sensor_id;sensor_type;location;lat;lon;timestamp;temperature;humidity
15900;DHT22;8048;50.644;6.184;2022-09-25T00:00:20;12.60;99.90
15900;DHT22;8048;50.644;6.184;2022-09-25T00:02:45;12.70;99.90
15900;DHT22;8048;50.644;6.184;2022-09-25T00:05:11;12.60;99.90
15900;DHT22;8048;50.644;6.184;2022-09-25T00:07:36;12.70;99.90
15900;DHT22;8048;50.644;6.184;2022-09-25T00:10:02;12.60;99.90
15900;DHT22;8048;50.644;6.184;2022-09-25T00:12:28;12.60;99.90
15900;DHT22;8048;50.644;6.184;2022-09-25T00:14:54;12.60;99.90
15900;DHT22;8048;50.644;6.184;2022-09-25T00:17:20;12.60;99.90
15900;DHT22;8048;50.644;6.184;2022-09-25T00:19:46;12.60;99.90
15900;DHT22;8048;50.644;6.184;2022-09-25T00:22:17;12.60;99.90
15900;DHT22;8048;50.644;6.184;2022-09-25T00:24:43;12.60;99.90
15900;DHT22;8048;50.644;6.184;2022-09-25T00:27:09;12.60;99.90
15900;DHT22;8048;50.644;6.184;2022-09-25T00:29:36;12.60;99.90
15900;DHT22;8048;50.644;6.184;2022-09-25T00:32:06;12.60;99.90
15900;DHT22;8048;50.644;6.184;2022-09-25T00:34:32;12.70;99.90
15900;DHT22;8048;50.644;6.184;2022-09-25T00:36:57;12.60;99.90
15900;DHT22;8048;50.644;6.184;2022-09-25T00:39:23;12.60;99.90
15900;DHT22;8048;50.644;6.184;2022-09-25T00:41:50;12.70;99.90
15900;DHT22;8048;50.644;6.184;2022-09-25T00:50:33;12.60;99.90
15900;DHT22;8048;50.644;6.184;2022-09-25T00:53:08;12.60;99.90
15900;DHT22;8048;50.644;6.184;2022-09-25T00:55:37;12.60;99.90
15900;DHT22;8048;50.644;6.184;2022-09-25T00:58:04;12.60;99.90
15900;DHT22;8048;50.644;6.184;2022-09-25T01:00:31;12.60;99.90
15900;DHT22;8048;50.644;6.184;2022-09-25T01:02:57;12.60;99.90
15900;DHT22;8048;50.644;6.184;2022-09-25T01:05:30;12.60;99.90
15900;DHT22;8048;50.644;6.184;2022-09-25T01:07:59;12.60;99.90
15900;DHT22;8048;50.644;6.184;2022-09-25T01:10:25;12.60;99.90
15900;DHT22;8048;50.644;6.184;2022-09-25T01:12:52;12.70;99.90
15900;DHT22;8048;50.644;6.184;2022-09-25T01:15:37;12.60;99.90
15900;DHT22;8048;50.644;6.184;2022-09-25T01:18:27;12.60;99.90
15900;DHT22;8048;50.644;6.184;2022-09-25T01:21:24;12.60;99.90
15900;DHT22;8048;50.644;6.184;2022-09-25T01:29:17;12.60;99.90
15900;DHT22;8048;50.644;6.184;2022-09-25T01:31:54;12.60;99.90
15900;DHT22;8048;50.644;6.184;2022-09-25T01:34:51;12.60;99.90
15900;DHT22;8048;50.644;6.184;2022-09-25T01:42:56;12.60;99.90
15900;DHT22;8048;50.644;6.184;2022-09-25T01:45:34;12.60;99.90
15900;DHT22;8048;50.644;6.184;2022-09-25T01:48:01;12.60;99.90
15900;DHT22;8048;50.644;6.184;2022-09-25T01:50:42;12.60;99.90
15900;DHT22;8048;50.644;6.184;2022-09-25T01:53:17;12.60;99.90
15900;DHT22;8048;50.644;6.184;2022-09-25T01:55:47;12.60;99.90
15900;DHT22;8048;50.644;6.184;2022-09-25T01:58:35;12.60;99.90
15900;DHT22;8048;50.644;6.184;2022-09-25T02:01:18;12.60;99.90
15900;DHT22;8048;50.644;6.184;2022-09-25T02:03:50;12.70;99.90
15900;DHT22;8048;50.644;6.184;2022-09-25T02:06:20;12.70;99.90
15900;DHT22;8048;50.644;6.184;2022-09-25T02:08:50;12.70;99.90
15900;DHT22;8048;50.644;6.184;2022-09-25T02:11:18;12.60;99.90
15900;DHT22;8048;50.644;6.184;2022-09-25T02:13:53;12.70;99.90
15900;DHT22;8048;50.644;6.184;2022-09-25T02:16:28;12.70;99.90
15900;DHT22;8048;50.644;6.184;2022-09-25T02:18:55;12.60;99.90
15900;DHT22;8048;50.644;6.184;2022-09-25T02:27:01;12.70;99.90
15900;DHT22;8048;50.644;6.184;2022-09-25T02:29:28;12.70;99.90
15900;DHT22;8048;50.644;6.184;2022-09-25T02:32:03;12.70;99.90
15900;DHT22;8048;50.644;6.184;2022-09-25T02:34:30;12.70;99.90
15900;DHT22;8048;50.644;6.184;2022-09-25T02:36:57;12.60;99.90
15900;DHT22;8048;50.644;6.184;2022-09-25T02:39:26;12.60;99.90
15900;DHT22;8048;50.644;6.184;2022-09-25T02:56:05;12.40;99.90
15900;DHT22;8048;50.644;6.184;2022-09-25T02:58:55;12.50;99.90
15900;DHT22;8048;50.644;6.184;2022-09-25T03:01:23;12.40;99.90
15900;DHT22;8048;50.644;6.184;2022-09-25T03:03:53;12.40;99.90
15900;DHT22;8048;50.644;6.184;2022-09-25T03:06:21;12.40;99.90
15900;DHT22;8048;50.644;6.184;2022-09-25T03:08:48;12.40;99.90
15900;DHT22;8048;50.644;6.184;2022-09-25T03:11:18;12.40;99.90
15900;DHT22;8048;50.644;6.184;2022-09-25T03:13:54;12.30;99.90
15900;DHT22;8048;50.644;6.184;2022-09-25T03:16:46;12.30;99.90
15900;DHT22;8048;50.644;6.184;2022-09-25T03:19:12;12.30;99.90
15900;DHT22;8048;50.644;6.184;2022-09-25T03:21:38;12.30;99.90
15900;DHT22;8048;50.644;6.184;2022-09-25T03:24:04;12.20;99.90
15900;DHT22;8048;50.644;6.184;2022-09-25T03:26:30;12.10;99.90
15900;DHT22;8048;50.644;6.184;2022-09-25T03:28:56;12.20;99.90
15900;DHT22;8048;50.644;6.184;2022-09-25T03:31:27;12.20;99.90
15900;DHT22;8048;50.644;6.184;2022-09-25T03:33:53;12.20;99.90
15900;DHT22;8048;50.644;6.184;2022-09-25T03:36:24;12.20;99.90
15900;DHT22;8048;50.644;6.184;2022-09-25T03:38:52;12.30;99.90
15900;DHT22;8048;50.644;6.184;2022-09-25T03:41:20;12.30;99.90
15900;DHT22;8048;50.644;6.184;2022-09-25T03:43:49;12.30;99.90
15900;DHT22;8048;50.644;6.184;2022-09-25T03:46:17;12.20;99.90
15900;DHT22;8048;50.644;6.184;2022-09-25T03:48:43;12.20;99.90
15900;DHT22;8048;50.644;6.184;2022-09-25T03:51:09;12.20;99.90
15900;DHT22;8048;50.644;6.184;2022-09-25T03:53:36;12.10;99.90
15900;DHT22;8048;50.644;6.184;2022-09-25T03:56:22;12.10;99.90
15900;DHT22;8048;50.644;6.184;2022-09-25T03:58:48;12.20;99.90
15900;DHT22;8048;50.644;6.184;2022-09-25T04:01:15;12.10;99.90
15900;DHT22;8048;50.644;6.184;2022-09-25T04:03:40;12.00;99.90
15900;DHT22;8048;50.644;6.184;2022-09-25T04:06:09;12.00;99.90
15900;DHT22;8048;50.644;6.184;2022-09-25T04:08:35;12.10;99.90
15900;DHT22;8048;50.644;6.184;2022-09-25T04:11:02;12.10;99.90
15900;DHT22;8048;50.644;6.184;2022-09-25T04:13:31;12.10;99.90
15900;DHT22;8048;50.644;6.184;2022-09-25T04:15:59;12.10;99.90
15900;DHT22;8048;50.644;6.184;2022-09-25T04:18:27;12.10;99.90
15900;DHT22;8048;50.644;6.184;2022-09-25T04:21:04;12.10;99.90
15900;DHT22;8048;50.644;6.184;2022-09-25T04:23:31;12.00;99.90
15900;DHT22;8048;50.644;6.184;2022-09-25T04:25:56;12.00;99.90
15900;DHT22;8048;50.644;6.184;2022-09-25T04:28:23;12.00;99.90
15900;DHT22;8048;50.644;6.184;2022-09-25T04:30:49;12.00;99.90
15900;DHT22;8048;50.644;6.184;2022-09-25T04:33:16;12.00;99.90
15900;DHT22;8048;50.644;6.184;2022-09-25T04:36:00;12.00;99.90
15900;DHT22;8048;50.644;6.184;2022-09-25T04:38:26;12.10;99.90
15900;DHT22;8048;50.644;6.184;2022-09-25T04:40:52;12.10;99.90
15900;DHT22;8048;50.644;6.184;2022-09-25T04:43:17;12.10;99.90
15900;DHT22;8048;50.644;6.184;2022-09-25T04:45:43;12.10;99.90
15900;DHT22;8048;50.644;6.184;2022-09-25T04:48:08;12.00;99.90
15900;DHT22;8048;50.644;6.184;2022-09-25T04:50:34;12.10;99.90
15900;DHT22;8048;50.644;6.184;2022-09-25T04:53:00;12.20;99.90
15900;DHT22;8048;50.644;6.184;2022-09-25T04:55:27;12.10;99.90
15900;DHT22;8048;50.644;6.184;2022-09-25T04:57:58;12.00;99.90
15900;DHT22;8048;50.644;6.184;2022-09-25T05:00:26;12.00;99.90
15900;DHT22;8048;50.644;6.184;2022-09-25T05:02:53;12.00;99.90
15900;DHT22;8048;50.644;6.184;2022-09-25T05:05:18;12.00;99.90
15900;DHT22;8048;50.644;6.184;2022-09-25T05:07:54;12.00;99.90
15900;DHT22;8048;50.644;6.184;2022-09-25T05:10:22;12.00;99.90
15900;DHT22;8048;50.644;6.184;2022-09-25T05:12:56;11.90;99.90
15900;DHT22;8048;50.644;6.184;2022-09-25T05:15:23;12.00;99.90
15900;DHT22;8048;50.644;6.184;2022-09-25T05:17:49;12.00;99.90
15900;DHT22;8048;50.644;6.184;2022-09-25T05:20:17;12.00;99.90
15900;DHT22;8048;50.644;6.184;2022-09-25T05:22:43;11.90;99.90
15900;DHT22;8048;50.644;6.184;2022-09-25T05:25:08;11.90;99.90
15900;DHT22;8048;50.644;6.184;2022-09-25T05:27:34;11.80;99.90
15900;DHT22;8048;50.644;6.184;2022-09-25T05:30:00;12.00;99.90
15900;DHT22;8048;50.644;6.184;2022-09-25T05:32:25;11.90;99.90
15900;DHT22;8048;50.644;6.184;2022-09-25T05:34:51;12.00;99.90
15900;DHT22;8048;50.644;6.184;2022-09-25T05:37:17;11.90;99.90
15900;DHT22;8048;50.644;6.184;2022-09-25T05:39:43;11.80;99.90
15900;DHT22;8048;50.644;6.184;2022-09-25T05:42:08;11.80;99.90
15900;DHT22;8048;50.644;6.184;2022-09-25T05:44:34;11.80;99.90
15900;DHT22;8048;50.644;6.184;2022-09-25T05:46:59;11.80;99.90
15900;DHT22;8048;50.644;6.184;2022-09-25T05:49:25;11.80;99.90
15900;DHT22;8048;50.644;6.184;2022-09-25T05:51:50;11.80;99.90
15900;DHT22;8048;50.644;6.184;2022-09-25T05:54:16;11.80;99.90
15900;DHT22;8048;50.644;6.184;2022-09-25T05:56:41;11.80;99.90
15900;DHT22;8048;50.644;6.184;2022-09-25T05:59:07;11.90;99.90
15900;DHT22;8048;50.644;6.184;2022-09-25T06:01:32;11.90;99.90
15900;DHT22;8048;50.644;6.184;2022-09-25T06:03:58;11.80;99.90
15900;DHT22;8048;50.644;6.184;2022-09-25T06:06:23;11.80;99.90
15900;DHT22;8048;50.644;6.184;2022-09-25T06:08:49;11.80;99.90
15900;DHT22;8048;50.644;6.184;2022-09-25T06:11:14;11.80;99.90
15900;DHT22;8048;50.644;6.184;2022-09-25T06:13:40;11.80;99.90
15900;DHT22;8048;50.644;6.184;2022-09-25T06:16:14;11.70;99.90
15900;DHT22;8048;50.644;6.184;2022-09-25T06:18:44;11.70;99.90
15900;DHT22;8048;50.644;6.184;2022-09-25T06:21:09;11.80;99.90
15900;DHT22;8048;50.644;6.184;2022-09-25T06:23:35;11.70;99.90
15900;DHT22;8048;50.644;6.184;2022-09-25T06:26:02;11.80;99.90
15900;DHT22;8048;50.644;6.184;2022-09-25T06:28:28;11.80;99.90
15900;DHT22;8048;50.644;6.184;2022-09-25T06:30:54;11.80;99.90
15900;DHT22;8048;50.644;6.184;2022-09-25T06:33:20;11.80;99.90
15900;DHT22;8048;50.644;6.184;2022-09-25T06:35:47;11.70;99.90
15900;DHT22;8048;50.644;6.184;2022-09-25T06:38:14;11.70;99.90
15900;DHT22;8048;50.644;6.184;2022-09-25T06:40:40;11.70;99.90
15900;DHT22;8048;50.644;6.184;2022-09-25T06:43:09;11.70;99.90
15900;DHT22;8048;50.644;6.184;2022-09-25T06:45:35;11.70;99.90
15900;DHT22;8048;50.644;6.184;2022-09-25T06:48:05;11.80;99.90
15900;DHT22;8048;50.644;6.184;2022-09-25T06:53:09;11.80;99.90
15900;DHT22;8048;50.644;6.184;2022-09-25T06:55:36;11.70;99.90
15900;DHT22;8048;50.644;6.184;2022-09-25T06:58:04;11.80;99.90
15900;DHT22;8048;50.644;6.184;2022-09-25T07:00:31;11.80;99.90
15900;DHT22;8048;50.644;6.184;2022-09-25T07:02:57;11.90;99.90
15900;DHT22;8048;50.644;6.184;2022-09-25T07:05:42;11.90;99.90
15900;DHT22;8048;50.644;6.184;2022-09-25T07:08:10;11.80;99.90
15900;DHT22;8048;50.644;6.184;2022-09-25T07:10:35;11.90;99.90
15900;DHT22;8048;50.644;6.184;2022-09-25T07:13:00;11.90;99.90
15900;DHT22;8048;50.644;6.184;2022-09-25T07:15:26;11.80;99.90
15900;DHT22;8048;50.644;6.184;2022-09-25T07:17:52;11.80;99.90
15900;DHT22;8048;50.644;6.184;2022-09-25T07:20:17;11.80;99.90
15900;DHT22;8048;50.644;6.184;2022-09-25T07:22:43;11.80;99.90
15900;DHT22;8048;50.644;6.184;2022-09-25T07:25:10;11.90;99.90
15900;DHT22;8048;50.644;6.184;2022-09-25T07:27:36;11.90;99.90
15900;DHT22;8048;50.644;6.184;2022-09-25T07:30:03;11.90;99.90
15900;DHT22;8048;50.644;6.184;2022-09-25T07:32:29;11.90;99.90
15900;DHT22;8048;50.644;6.184;2022-09-25T07:34:56;11.90;99.90
15900;DHT22;8048;50.644;6.184;2022-09-25T07:37:23;12.00;99.90
15900;DHT22;8048;50.644;6.184;2022-09-25T07:39:48;12.00;99.90
15900;DHT22;8048;50.644;6.184;2022-09-25T07:42:14;12.00;99.90
15900;DHT22;8048;50.644;6.184;2022-09-25T07:44:41;12.00;99.90
15900;DHT22;8048;50.644;6.184;2022-09-25T07:47:07;12.10;99.90
15900;DHT22;8048;50.644;6.184;2022-09-25T07:49:33;12.10;99.90
15900;DHT22;8048;50.644;6.184;2022-09-25T07:52:02;12.20;99.90
15900;DHT22;8048;50.644;6.184;2022-09-25T07:54:30;12.30;99.90
15900;DHT22;8048;50.644;6.184;2022-09-25T07:56:56;12.30;99.90
15900;DHT22;8048;50.644;6.184;2022-09-25T07:59:22;12.40;99.90
15900;DHT22;8048;50.644;6.184;2022-09-25T08:01:47;12.40;99.90
15900;DHT22;8048;50.644;6.184;2022-09-25T08:04:13;12.50;99.90
15900;DHT22;8048;50.644;6.184;2022-09-25T08:06:39;12.60;99.90
15900;DHT22;8048;50.644;6.184;2022-09-25T08:09:04;12.70;99.90
15900;DHT22;8048;50.644;6.184;2022-09-25T08:11:29;12.80;99.90
15900;DHT22;8048;50.644;6.184;2022-09-25T08:13:55;12.80;99.90
15900;DHT22;8048;50.644;6.184;2022-09-25T08:16:21;12.90;99.90
15900;DHT22;8048;50.644;6.184;2022-09-25T08:18:48;12.90;99.90
15900;DHT22;8048;50.644;6.184;2022-09-25T08:21:16;12.80;99.90
15900;DHT22;8048;50.644;6.184;2022-09-25T08:23:43;12.90;99.90
15900;DHT22;8048;50.644;6.184;2022-09-25T08:26:09;13.00;99.90
15900;DHT22;8048;50.644;6.184;2022-09-25T08:28:35;13.20;99.90
15900;DHT22;8048;50.644;6.184;2022-09-25T08:31:01;13.30;99.90
15900;DHT22;8048;50.644;6.184;2022-09-25T08:33:28;13.40;99.90
15900;DHT22;8048;50.644;6.184;2022-09-25T08:35:55;13.60;99.90
15900;DHT22;8048;50.644;6.184;2022-09-25T08:38:21;13.80;99.90
15900;DHT22;8048;50.644;6.184;2022-09-25T08:43:39;14.20;99.90
15900;DHT22;8048;50.644;6.184;2022-09-25T08:46:22;14.20;99.90
15900;DHT22;8048;50.644;6.184;2022-09-25T08:49:08;14.00;99.90
15900;DHT22;8048;50.644;6.184;2022-09-25T08:51:40;13.80;99.90
15900;DHT22;8048;50.644;6.184;2022-09-25T08:54:11;13.70;99.90
15900;DHT22;8048;50.644;6.184;2022-09-25T08:56:38;13.80;99.90
15900;DHT22;8048;50.644;6.184;2022-09-25T08:59:39;13.90;99.90
15900;DHT22;8048;50.644;6.184;2022-09-25T09:02:16;14.10;99.90
15900;DHT22;8048;50.644;6.184;2022-09-25T09:04:55;14.60;99.90
15900;DHT22;8048;50.644;6.184;2022-09-25T09:07:33;15.00;99.90
15900;DHT22;8048;50.644;6.184;2022-09-25T09:15:53;15.00;98.90
15900;DHT22;8048;50.644;6.184;2022-09-25T09:18:26;14.80;98.40
15900;DHT22;8048;50.644;6.184;2022-09-25T09:20:57;14.60;98.50
15900;DHT22;8048;50.644;6.184;2022-09-25T09:23:29;14.30;99.20
15900;DHT22;8048;50.644;6.184;2022-09-25T09:26:07;14.30;99.50
15900;DHT22;8048;50.644;6.184;2022-09-25T09:28:49;14.20;99.80
15900;DHT22;8048;50.644;6.184;2022-09-25T09:31:24;14.20;99.70
15900;DHT22;8048;50.644;6.184;2022-09-25T09:33:58;14.00;99.90
15900;DHT22;8048;50.644;6.184;2022-09-25T09:36:45;14.00;99.90
15900;DHT22;8048;50.644;6.184;2022-09-25T09:39:15;14.10;99.90
15900;DHT22;8048;50.644;6.184;2022-09-25T09:45:17;14.40;99.90
15900;DHT22;8048;50.644;6.184;2022-09-25T09:50:48;15.00;99.90
15900;DHT22;8048;50.644;6.184;2022-09-25T09:56:34;15.80;98.30
15900;DHT22;8048;50.644;6.184;2022-09-25T09:59:04;16.20;97.10
15900;DHT22;8048;50.644;6.184;2022-09-25T10:01:34;16.30;96.40
15900;DHT22;8048;50.644;6.184;2022-09-25T10:04:15;16.30;95.70
15900;DHT22;8048;50.644;6.184;2022-09-25T10:06:45;16.00;94.50
15900;DHT22;8048;50.644;6.184;2022-09-25T10:09:14;15.80;94.90
15900;DHT22;8048;50.644;6.184;2022-09-25T10:11:41;15.70;95.30
15900;DHT22;8048;50.644;6.184;2022-09-25T10:14:17;15.50;95.60
15900;DHT22;8048;50.644;6.184;2022-09-25T10:16:49;15.60;96.30
15900;DHT22;8048;50.644;6.184;2022-09-25T10:19:18;15.60;95.70
15900;DHT22;8048;50.644;6.184;2022-09-25T10:21:56;15.60;95.60
15900;DHT22;8048;50.644;6.184;2022-09-25T10:24:45;15.70;95.90
15900;DHT22;8048;50.644;6.184;2022-09-25T10:29:45;17.40;96.90
15900;DHT22;8048;50.644;6.184;2022-09-25T10:32:10;18.10;94.60
15900;DHT22;8048;50.644;6.184;2022-09-25T10:34:36;18.80;93.70
15900;DHT22;8048;50.644;6.184;2022-09-25T10:37:17;19.30;93.60
15900;DHT22;8048;50.644;6.184;2022-09-25T10:39:59;19.60;91.70
15900;DHT22;8048;50.644;6.184;2022-09-25T10:42:44;19.90;91.00
15900;DHT22;8048;50.644;6.184;2022-09-25T10:47:49;19.70;88.00
15900;DHT22;8048;50.644;6.184;2022-09-25T10:50:33;19.40;87.30
15900;DHT22;8048;50.644;6.184;2022-09-25T10:53:01;19.20;88.60
15900;DHT22;8048;50.644;6.184;2022-09-25T10:55:31;19.00;88.40
15900;DHT22;8048;50.644;6.184;2022-09-25T11:03:25;20.60;90.20
15900;DHT22;8048;50.644;6.184;2022-09-25T11:08:28;21.80;84.60
15900;DHT22;8048;50.644;6.184;2022-09-25T11:10:57;22.50;87.00
15900;DHT22;8048;50.644;6.184;2022-09-25T11:13:25;23.10;80.10
15900;DHT22;8048;50.644;6.184;2022-09-25T11:15:59;23.20;80.00
15900;DHT22;8048;50.644;6.184;2022-09-25T11:18:45;23.30;77.00
15900;DHT22;8048;50.644;6.184;2022-09-25T11:21:29;23.00;76.70
15900;DHT22;8048;50.644;6.184;2022-09-25T11:26:56;21.80;73.20
15900;DHT22;8048;50.644;6.184;2022-09-25T11:35:02;19.90;78.70
15900;DHT22;8048;50.644;6.184;2022-09-25T11:40:56;20.00;84.90
15900;DHT22;8048;50.644;6.184;2022-09-25T11:43:40;20.40;81.40
15900;DHT22;8048;50.644;6.184;2022-09-25T11:49:09;22.00;75.00
15900;DHT22;8048;50.644;6.184;2022-09-25T11:54:40;22.10;79.60
15900;DHT22;8048;50.644;6.184;2022-09-25T12:00:20;21.60;78.00
15900;DHT22;8048;50.644;6.184;2022-09-25T12:08:27;22.00;73.50
15900;DHT22;8048;50.644;6.184;2022-09-25T12:11:06;22.60;72.40
15900;DHT22;8048;50.644;6.184;2022-09-25T12:13:57;22.70;71.50
15900;DHT22;8048;50.644;6.184;2022-09-25T12:19:12;22.60;71.60
15900;DHT22;8048;50.644;6.184;2022-09-25T12:21:50;22.20;69.90
15900;DHT22;8048;50.644;6.184;2022-09-25T12:24:33;21.70;70.80
15900;DHT22;8048;50.644;6.184;2022-09-25T12:29:44;21.10;73.00
15900;DHT22;8048;50.644;6.184;2022-09-25T12:38:19;21.70;76.40
15900;DHT22;8048;50.644;6.184;2022-09-25T12:43:29;21.90;73.20
15900;DHT22;8048;50.644;6.184;2022-09-25T12:46:00;21.80;72.20
15900;DHT22;8048;50.644;6.184;2022-09-25T12:48:44;21.50;73.00
15900;DHT22;8048;50.644;6.184;2022-09-25T12:51:22;21.70;76.40
15900;DHT22;8048;50.644;6.184;2022-09-25T12:56:26;22.50;76.50
15900;DHT22;8048;50.644;6.184;2022-09-25T12:59:20;23.40;75.30
15900;DHT22;8048;50.644;6.184;2022-09-25T13:02:16;23.70;74.90
15900;DHT22;8048;50.644;6.184;2022-09-25T13:05:16;23.80;66.40
15900;DHT22;8048;50.644;6.184;2022-09-25T13:07:56;23.40;71.90
15900;DHT22;8048;50.644;6.184;2022-09-25T13:10:39;23.00;71.70
15900;DHT22;8048;50.644;6.184;2022-09-25T13:13:11;23.10;68.80
15900;DHT22;8048;50.644;6.184;2022-09-25T13:15:38;22.70;66.60
15900;DHT22;8048;50.644;6.184;2022-09-25T13:18:07;22.30;66.10
15900;DHT22;8048;50.644;6.184;2022-09-25T13:23:08;21.20;67.30
15900;DHT22;8048;50.644;6.184;2022-09-25T13:25:47;20.80;68.50
15900;DHT22;8048;50.644;6.184;2022-09-25T13:28:23;20.50;71.00
15900;DHT22;8048;50.644;6.184;2022-09-25T13:31:32;20.30;71.80
15900;DHT22;8048;50.644;6.184;2022-09-25T13:34:11;20.10;74.70
15900;DHT22;8048;50.644;6.184;2022-09-25T13:36:54;19.90;72.40
15900;DHT22;8048;50.644;6.184;2022-09-25T13:39:31;20.20;77.00
15900;DHT22;8048;50.644;6.184;2022-09-25T13:47:50;23.00;72.10
15900;DHT22;8048;50.644;6.184;2022-09-25T13:50:22;23.60;72.00
15900;DHT22;8048;50.644;6.184;2022-09-25T13:55:42;24.30;66.90
15900;DHT22;8048;50.644;6.184;2022-09-25T13:58:20;24.60;63.90
15900;DHT22;8048;50.644;6.184;2022-09-25T14:05:57;25.50;62.50
15900;DHT22;8048;50.644;6.184;2022-09-25T14:08:24;25.80;61.40
15900;DHT22;8048;50.644;6.184;2022-09-25T14:10:53;25.70;60.70
15900;DHT22;8048;50.644;6.184;2022-09-25T14:13:20;25.60;58.60
15900;DHT22;8048;50.644;6.184;2022-09-25T14:15:50;25.20;61.30
15900;DHT22;8048;50.644;6.184;2022-09-25T14:18:24;24.60;59.80
15900;DHT22;8048;50.644;6.184;2022-09-25T14:20:56;24.50;63.10
15900;DHT22;8048;50.644;6.184;2022-09-25T14:23:27;24.00;61.50
15900;DHT22;8048;50.644;6.184;2022-09-25T14:26:14;23.60;62.10
15900;DHT22;8048;50.644;6.184;2022-09-25T14:28:45;23.00;61.50
15900;DHT22;8048;50.644;6.184;2022-09-25T14:43:41;22.20;68.70
15900;DHT22;8048;50.644;6.184;2022-09-25T14:46:17;22.60;68.20
15900;DHT22;8048;50.644;6.184;2022-09-25T14:48:50;22.80;63.40
15900;DHT22;8048;50.644;6.184;2022-09-25T14:51:25;22.90;61.80
15900;DHT22;8048;50.644;6.184;2022-09-25T14:54:01;23.10;62.00
15900;DHT22;8048;50.644;6.184;2022-09-25T14:56:28;23.30;63.40
15900;DHT22;8048;50.644;6.184;2022-09-25T14:59:00;23.30;61.70
15900;DHT22;8048;50.644;6.184;2022-09-25T15:01:34;23.40;61.40
15900;DHT22;8048;50.644;6.184;2022-09-25T15:04:06;23.60;61.50
15900;DHT22;8048;50.644;6.184;2022-09-25T15:06:34;23.70;63.30
15900;DHT22;8048;50.644;6.184;2022-09-25T15:09:02;23.90;60.30
15900;DHT22;8048;50.644;6.184;2022-09-25T15:11:42;24.10;61.50
15900;DHT22;8048;50.644;6.184;2022-09-25T15:14:10;23.90;60.00
15900;DHT22;8048;50.644;6.184;2022-09-25T15:16:36;23.90;62.50
15900;DHT22;8048;50.644;6.184;2022-09-25T15:19:25;23.80;59.20
15900;DHT22;8048;50.644;6.184;2022-09-25T15:21:52;23.70;59.80
15900;DHT22;8048;50.644;6.184;2022-09-25T15:24:23;23.60;60.10
15900;DHT22;8048;50.644;6.184;2022-09-25T15:26:57;23.40;62.20
15900;DHT22;8048;50.644;6.184;2022-09-25T15:29:29;23.10;64.90
15900;DHT22;8048;50.644;6.184;2022-09-25T15:31:55;22.90;60.10
15900;DHT22;8048;50.644;6.184;2022-09-25T15:34:22;22.50;59.80
15900;DHT22;8048;50.644;6.184;2022-09-25T15:36:49;22.00;62.50
15900;DHT22;8048;50.644;6.184;2022-09-25T15:39:25;21.50;61.40
15900;DHT22;8048;50.644;6.184;2022-09-25T15:41:52;21.20;64.00
15900;DHT22;8048;50.644;6.184;2022-09-25T15:44:19;20.90;63.60
15900;DHT22;8048;50.644;6.184;2022-09-25T15:46:53;20.80;65.40
15900;DHT22;8048;50.644;6.184;2022-09-25T15:49:48;20.40;62.60
15900;DHT22;8048;50.644;6.184;2022-09-25T15:52:25;20.10;65.10
15900;DHT22;8048;50.644;6.184;2022-09-25T15:55:04;19.90;67.50
15900;DHT22;8048;50.644;6.184;2022-09-25T15:57:31;19.90;68.20
15900;DHT22;8048;50.644;6.184;2022-09-25T15:59:58;19.70;64.70
15900;DHT22;8048;50.644;6.184;2022-09-25T16:02:55;19.40;66.70
15900;DHT22;8048;50.644;6.184;2022-09-25T16:05:44;19.30;71.20
15900;DHT22;8048;50.644;6.184;2022-09-25T16:13:35;18.90;69.90
15900;DHT22;8048;50.644;6.184;2022-09-25T16:16:02;18.70;72.20
15900;DHT22;8048;50.644;6.184;2022-09-25T16:18:38;18.50;73.20
15900;DHT22;8048;50.644;6.184;2022-09-25T16:21:15;18.40;72.50
15900;DHT22;8048;50.644;6.184;2022-09-25T16:23:43;18.40;73.40
15900;DHT22;8048;50.644;6.184;2022-09-25T16:26:20;18.30;76.60
15900;DHT22;8048;50.644;6.184;2022-09-25T16:31:40;17.90;76.90
15900;DHT22;8048;50.644;6.184;2022-09-25T16:34:16;17.80;73.90
15900;DHT22;8048;50.644;6.184;2022-09-25T16:36:44;17.70;78.50
15900;DHT22;8048;50.644;6.184;2022-09-25T16:39:32;17.50;79.60
15900;DHT22;8048;50.644;6.184;2022-09-25T16:41:58;17.30;80.60
15900;DHT22;8048;50.644;6.184;2022-09-25T16:49:24;17.00;82.40
15900;DHT22;8048;50.644;6.184;2022-09-25T16:51:52;16.80;82.70
15900;DHT22;8048;50.644;6.184;2022-09-25T16:54:19;16.60;82.90
15900;DHT22;8048;50.644;6.184;2022-09-25T16:56:55;16.50;83.50
15900;DHT22;8048;50.644;6.184;2022-09-25T16:59:24;16.30;84.70
15900;DHT22;8048;50.644;6.184;2022-09-25T17:01:52;16.10;85.10
15900;DHT22;8048;50.644;6.184;2022-09-25T17:04:23;16.00;86.10
15900;DHT22;8048;50.644;6.184;2022-09-25T17:06:50;15.90;87.40
15900;DHT22;8048;50.644;6.184;2022-09-25T17:09:16;15.60;88.00
15900;DHT22;8048;50.644;6.184;2022-09-25T17:11:45;15.60;89.80
15900;DHT22;8048;50.644;6.184;2022-09-25T17:14:21;15.40;90.30
15900;DHT22;8048;50.644;6.184;2022-09-25T17:16:51;15.20;89.90
15900;DHT22;8048;50.644;6.184;2022-09-25T17:19:17;15.20;90.10
15900;DHT22;8048;50.644;6.184;2022-09-25T17:21:49;15.00;90.90
15900;DHT22;8048;50.644;6.184;2022-09-25T17:24:16;14.80;91.60
15900;DHT22;8048;50.644;6.184;2022-09-25T17:26:43;14.70;91.60
15900;DHT22;8048;50.644;6.184;2022-09-25T17:29:09;14.60;92.20
15900;DHT22;8048;50.644;6.184;2022-09-25T17:31:35;14.50;92.10
15900;DHT22;8048;50.644;6.184;2022-09-25T17:34:05;14.40;92.50
15900;DHT22;8048;50.644;6.184;2022-09-25T17:36:33;14.20;92.60
15900;DHT22;8048;50.644;6.184;2022-09-25T17:38:59;14.10;92.60
15900;DHT22;8048;50.644;6.184;2022-09-25T17:41:33;13.90;92.60
15900;DHT22;8048;50.644;6.184;2022-09-25T17:43:59;13.70;92.80
15900;DHT22;8048;50.644;6.184;2022-09-25T17:46:26;13.50;93.30
15900;DHT22;8048;50.644;6.184;2022-09-25T17:48:52;13.40;94.00
15900;DHT22;8048;50.644;6.184;2022-09-25T17:51:18;13.40;94.20
15900;DHT22;8048;50.644;6.184;2022-09-25T17:53:44;13.20;94.50
15900;DHT22;8048;50.644;6.184;2022-09-25T17:56:11;13.10;95.20
15900;DHT22;8048;50.644;6.184;2022-09-25T17:58:37;13.10;95.00
15900;DHT22;8048;50.644;6.184;2022-09-25T18:01:27;13.00;95.60
15900;DHT22;8048;50.644;6.184;2022-09-25T18:03:58;12.90;95.80
15900;DHT22;8048;50.644;6.184;2022-09-25T18:06:25;12.80;96.40
15900;DHT22;8048;50.644;6.184;2022-09-25T18:08:52;12.80;96.20
15900;DHT22;8048;50.644;6.184;2022-09-25T18:11:19;12.70;96.30
15900;DHT22;8048;50.644;6.184;2022-09-25T18:13:45;12.60;96.50
15900;DHT22;8048;50.644;6.184;2022-09-25T18:16:13;12.50;96.50
15900;DHT22;8048;50.644;6.184;2022-09-25T18:18:41;12.40;96.40
15900;DHT22;8048;50.644;6.184;2022-09-25T18:21:25;12.20;96.60
15900;DHT22;8048;50.644;6.184;2022-09-25T18:24:09;12.20;97.00
15900;DHT22;8048;50.644;6.184;2022-09-25T18:26:35;12.10;97.20
15900;DHT22;8048;50.644;6.184;2022-09-25T18:29:00;12.00;97.30
15900;DHT22;8048;50.644;6.184;2022-09-25T18:31:26;12.00;97.40
15900;DHT22;8048;50.644;6.184;2022-09-25T18:33:51;11.90;97.40
15900;DHT22;8048;50.644;6.184;2022-09-25T18:36:19;11.90;97.30
15900;DHT22;8048;50.644;6.184;2022-09-25T18:38:45;11.80;97.80
15900;DHT22;8048;50.644;6.184;2022-09-25T18:41:10;11.60;97.30
15900;DHT22;8048;50.644;6.184;2022-09-25T18:43:38;11.60;97.60